Terminal Aerodrome Forecast
Issued by NWS Shreveport, LA

Home | Current Version | Previous Version | Text Only | Print | Product List | Glossary On
Versions: 1 2 3 4 5 6 7 8 9 10 11 12 13 14 15 16 17 18 19 20 21
000
FTUS44 KSHV 210739 AAA
TAFLFK
TAF AMD
KLFK 210739Z 2108/2206 16004KT P6SM OVC019
      TEMPO 2108/2112 1/4SM FG VV001
     FM211300 25004KT 2SM BR BKN006
     FM211500 27004KT P6SM BKN015
     FM211800 31008KT P6SM BKN100=

USA.gov is the U.S. government's official web portal to all federal, state and local government web resources and services.